aviador You're here:

YHID Decoded Metar

in
Report Time2018-06-23 05:30:00
UTC Time2018-06-23 06:01:07
Flight Rules vfr VFR
Wind130° at 17 kt
W.Decomp.*RWY 14: 16.7 kt HW 3 kt LCW
RWY 08: 10.9 kt HW 13.0 kt RCW
W.Rank130° ranks 1
Current wind is above 130° avg. (10.8)
Visibility9999 m
Phenomena:N/A
Clouds:Broken 053 Hf
Expected CloudBase > 2,400 ft AGL from Temp-Dew spread
Ceiling5,300 ft
Temp27°C
Dew Point21°C (70% RH)
Heat Index28.9°C
AAT25.1°C
QNH1012 hPa
Raw Report
METAR YHID 230530Z AUTO 13017KT 9999 // BKN053 27/21 Q1012=

Extra information for YHID:More info

Social comments